Pagrindinis puslapis
METAR-TAF:

METAR-TAF

Oro uostai :

Colmar, Prancūzija

platuma: 48-06-37N, ilguma: 7-21-33E, Aukštis: 191 m

Dabartinis oras

Ataskaita buvo paskelbta 32 minutes, ne 05:30 UTC
Vėjas 1 kt nuo kintamojo kryptimis
Temperatūra 18°C
Drėgmė 49%
Slėgis 1016 hPa
Matomumas 10 km arba daugiau
nėra debesų žemiau 1500 m ir nėra kamuolinių lietaus debesų

METAR: LFGA 140530Z AUTO VRB01KT CAVOK 18/07 Q1016

Laikas: 08:02 (06:02 UTC)


TAF: trūkstamas

Orai ataskaitas ir orų prognozės (METAR, TAF).

turimą stotys yra geltonos ir raudonos taškus žemėlapyje.

Perkelti pele per norėdami pamatyti stoties vardą.

Tada spustelėkite, norėdami matyti oro stebėjimo ir prognozės.

Norėdami pakeisti žemėlapį: spustelėkite ant žalios mygtukų su juodo kryžiaus žemyn,; žalią mygtuką su brūkšneliu, jei norite nutolinti; arba žalių rodyklių gretimoms žemėlapius.


METAR-TAF: